Time;durP1;ratioP1;P1;durP2;ratioP2;P2;SDS_P1;SDS_P2;PMS_P1;PMS_P2;Temp;Humidity;BMP_temperature;BMP_pressure;BME280_temperature;BME280_humidity;BME280_pressure;Samples;Min_cycle;Max_cycle;Signal;HPM_P1;HPM_P2
2024/02/05 00:00:36;;;;;;;33.47;5.03;;;;;;;5.21;67.35;101165.47;5061255;28;20107;-70
2024/02/05 00:03:02;;;;;;;21.90;4.40;;;;;;;5.32;67.43;101154.94;5045752;28;20119;-70
2024/02/05 00:05:28;;;;;;;24.80;3.90;;;;;;;5.71;65.58;101160.47;5057686;28;20031;-68
2024/02/05 00:07:53;;;;;;;17.23;3.28;;;;;;;5.73;65.89;101172.53;5050298;28;20036;-74
2024/02/05 00:10:19;;;;;;;43.42;4.88;;;;;;;5.53;65.90;101167.63;5059194;28;20100;-70
2024/02/05 00:12:45;;;;;;;23.67;4.45;;;;;;;5.46;65.87;101166.00;5057531;28;20067;-68
2024/02/05 00:15:11;;;;;;;29.17;4.97;;;;;;;5.61;65.58;101165.78;5044156;28;20116;-70
2024/02/05 00:17:38;;;;;;;26.05;3.60;;;;;;;5.61;65.47;101158.00;5057301;28;20035;-70
2024/02/05 00:20:05;;;;;;;24.77;4.00;;;;;;;5.17;66.82;101159.47;5043784;28;20069;-67
2024/02/05 00:22:30;;;;;;;26.33;4.53;;;;;;;5.33;66.44;101143.72;5054537;28;20070;-72
2024/02/05 00:24:56;;;;;;;34.90;4.35;;;;;;;5.36;66.08;101148.84;5046493;28;20027;-72
2024/02/05 00:27:22;;;;;;;26.52;4.07;;;;;;;5.32;66.28;101158.41;5071707;28;20096;-72
2024/02/05 00:29:48;;;;;;;30.60;4.05;;;;;;;5.50;65.95;101141.72;5056786;28;20040;-74
2024/02/05 00:32:13;;;;;;;26.08;5.88;;;;;;;5.44;66.18;101139.25;5048097;28;20372;-72
2024/02/05 00:34:38;;;;;;;22.98;3.75;;;;;;;4.97;67.65;101151.94;5056649;28;20417;-72
2024/02/05 00:37:04;;;;;;;37.10;4.70;;;;;;;5.49;65.74;101158.19;5047735;28;20802;-72
2024/02/05 00:39:29;;;;;;;40.90;3.60;;;;;;;5.60;65.29;101165.81;5057779;28;20458;-74
2024/02/05 00:41:55;;;;;;;29.80;5.13;;;;;;;5.31;66.52;101168.81;5051772;28;21153;-69
2024/02/05 00:44:20;;;;;;;23.75;4.60;;;;;;;5.06;66.80;101161.34;5052016;28;20043;-69
2024/02/05 00:46:48;;;;;;;25.17;3.67;;;;;;;5.57;65.24;101192.63;5054167;28;20051;-65
2024/02/05 00:49:14;;;;;;;28.23;5.43;;;;;;;5.53;65.09;101183.19;5043849;28;20148;-64
2024/02/05 00:51:39;;;;;;;34.67;6.53;;;;;;;5.17;65.52;101193.16;5056202;28;20031;-69
2024/02/05 00:54:05;;;;;;;24.60;6.80;;;;;;;5.59;64.73;101166.66;5045162;28;20522;-67
2024/02/05 00:56:30;;;;;;;34.85;5.10;;;;;;;5.68;64.40;101176.91;5057469;28;20120;-70
2024/02/05 00:58:56;;;;;;;22.73;4.15;;;;;;;5.60;64.06;101178.78;5051270;28;20122;-70
2024/02/05 01:01:21;;;;;;;33.67;6.43;;;;;;;5.27;65.28;101174.91;5055044;28;20060;-71
2024/02/05 01:03:47;;;;;;;26.80;5.18;;;;;;;5.69;64.23;101178.63;5052207;28;20155;-70
2024/02/05 01:06:12;;;;;;;25.63;4.75;;;;;;;5.51;65.37;101184.94;5053333;28;20885;-69
2024/02/05 01:08:38;;;;;;;25.92;4.95;;;;;;;5.54;64.52;101179.69;5055585;28;20501;-68
2024/02/05 01:11:03;;;;;;;24.70;5.78;;;;;;;5.43;65.13;101184.19;5053653;28;20470;-70
2024/02/05 01:13:32;;;;;;;33.72;6.35;;;;;;;5.63;64.90;101173.53;5053756;28;20036;-66
2024/02/05 01:15:59;;;;;;;33.67;5.43;;;;;;;5.32;65.52;101186.06;5054520;28;20058;-65
2024/02/05 01:18:25;;;;;;;36.38;4.40;;;;;;;5.37;65.10;101177.34;5050320;28;20032;-64
2024/02/05 01:20:51;;;;;;;35.55;4.88;;;;;;;5.55;64.60;101188.34;5057046;28;20456;-64
2024/02/05 01:23:17;;;;;;;27.63;6.72;;;;;;;5.77;63.61;101191.47;5044428;28;20128;-65
2024/02/05 01:25:43;;;;;;;31.48;4.57;;;;;;;5.41;65.25;101198.91;5055985;28;20024;-66
2024/02/05 01:28:09;;;;;;;26.48;5.20;;;;;;;5.36;64.87;101193.78;5044362;28;20515;-66
2024/02/05 01:30:34;;;;;;;28.70;4.95;;;;;;;5.48;64.81;101192.78;5055146;28;20461;-66
2024/02/05 01:33:01;;;;;;;24.83;3.33;;;;;;;5.58;64.69;101191.75;5050252;28;20162;-65
2024/02/05 01:35:26;;;;;;;33.33;5.93;;;;;;;5.46;64.98;101210.09;5055350;28;20036;-66
2024/02/05 01:37:51;;;;;;;28.02;4.63;;;;;;;5.34;65.49;101197.25;5057287;28;20036;-66
2024/02/05 01:40:17;;;;;;;28.58;5.90;;;;;;;5.50;65.20;101206.53;5043579;28;20814;-64
2024/02/05 01:42:42;;;;;;;31.83;6.60;;;;;;;5.53;64.47;101184.94;5055678;28;20028;-67
2024/02/05 01:45:11;;;;;;;32.75;5.72;;;;;;;5.65;64.57;101193.38;5046517;28;20040;-65
2024/02/05 01:47:38;;;;;;;38.42;5.35;;;;;;;5.46;64.66;101190.19;5057350;28;20027;-67
2024/02/05 01:50:07;;;;;;;39.75;5.72;;;;;;;5.59;64.09;101182.22;5065822;28;20040;-65
2024/02/05 01:52:38;;;;;;;33.35;4.47;;;;;;;5.25;64.64;101177.50;5058160;28;20020;-67
2024/02/05 01:55:05;;;;;;;33.33;5.78;;;;;;;5.38;64.77;101173.88;5050124;28;20667;-66
2024/02/05 01:57:33;;;;;;;40.53;6.85;;;;;;;4.96;65.25;101165.75;5055562;28;20114;-67
2024/02/05 01:59:59;;;;;;;48.28;8.25;;;;;;;5.40;64.89;101166.09;5059968;28;20040;-68
2024/02/05 02:02:26;;;;;;;24.75;4.55;;;;;;;5.38;64.74;101173.03;5051403;28;20040;-66
2024/02/05 02:04:53;;;;;;;27.38;5.55;;;;;;;5.67;63.53;101163.09;5058323;28;20086;-68
2024/02/05 02:07:19;;;;;;;30.27;5.70;;;;;;;5.29;63.94;101161.03;5046127;28;20046;-67
2024/02/05 02:09:45;;;;;;;36.55;5.40;;;;;;;5.18;64.90;101161.19;5055600;28;20575;-67
2024/02/05 02:12:11;;;;;;;39.65;7.60;;;;;;;5.67;62.97;101151.88;5045178;28;20051;-66
2024/02/05 02:14:37;;;;;;;41.30;6.18;;;;;;;5.44;63.88;101153.06;5055502;28;20040;-66
2024/02/05 02:17:03;;;;;;;37.97;5.07;;;;;;;5.46;64.12;101150.44;5055655;28;20545;-67
2024/02/05 02:19:48;;;;;;;32.35;5.80;;;;;;;5.22;64.86;101130.91;5050112;28;20036;-67
2024/02/05 02:22:25;;;;;;;29.20;5.00;;;;;;;5.67;63.45;101144.94;5044025;28;20032;-67
2024/02/05 02:24:51;;;;;;;26.60;6.05;;;;;;;5.41;64.05;101152.22;5038466;28;20120;-68
2024/02/05 02:27:16;;;;;;;32.85;4.50;;;;;;;5.42;63.95;101138.41;5049689;28;20020;-67
2024/02/05 02:29:44;;;;;;;36.42;5.63;;;;;;;5.31;64.29;101150.66;5024009;28;20044;-65
2024/02/05 02:32:36;;;;;;;25.95;3.83;;;;;;;5.35;63.74;101147.16;5014164;28;20055;-69
2024/02/05 02:35:12;;;;;;;21.95;4.50;;;;;;;5.33;63.12;101159.28;5048939;28;20044;-73
2024/02/05 02:37:46;;;;;;;31.77;4.82;;;;;;;5.99;61.76;101142.72;5052446;28;20054;-73
2024/02/05 02:40:15;;;;;;;24.50;4.43;;;;;;;5.65;62.58;101143.25;5045675;28;20116;-73
2024/02/05 02:42:43;;;;;;;40.33;5.70;;;;;;;6.07;61.68;101131.31;5035079;28;20441;-72
2024/02/05 02:45:11;;;;;;;25.33;5.45;;;;;;;5.76;61.91;101109.38;5022914;28;20097;-73
2024/02/05 02:47:37;;;;;;;30.35;6.88;;;;;;;5.71;62.11;101109.44;5054142;28;20031;-74
2024/02/05 02:50:04;;;;;;;31.25;6.45;;;;;;;5.92;61.59;101113.41;5055350;28;20051;-73
2024/02/05 02:52:29;;;;;;;36.72;4.55;;;;;;;5.93;61.52;101130.72;5044676;28;20047;-73
2024/02/05 02:54:55;;;;;;;34.95;5.25;;;;;;;5.70;61.71;101128.47;5057259;28;20044;-72
2024/02/05 02:57:20;;;;;;;32.90;4.60;;;;;;;5.69;62.06;101125.91;5045875;28;20047;-66
2024/02/05 02:59:46;;;;;;;29.90;5.60;;;;;;;6.22;60.61;101121.56;5055338;28;20786;-66
2024/02/05 03:02:11;;;;;;;48.97;6.22;;;;;;;5.74;62.05;101124.09;5049235;28;20475;-65
2024/02/05 03:04:37;;;;;;;34.00;5.05;;;;;;;6.08;60.80;101122.66;5048932;28;20063;-65
2024/02/05 03:07:05;;;;;;;35.10;4.93;;;;;;;5.43;62.46;101111.59;5051152;28;20028;-67
2024/02/05 03:09:30;;;;;;;33.13;4.97;;;;;;;5.72;61.92;101131.88;5046363;28;20047;-67
2024/02/05 03:11:56;;;;;;;27.50;6.03;;;;;;;6.04;60.46;101121.00;5056759;28;20032;-68
2024/02/05 03:14:25;;;;;;;25.45;4.35;;;;;;;5.80;60.99;101129.19;5040739;28;20457;-67
2024/02/05 03:16:51;;;;;;;31.08;4.75;;;;;;;5.63;61.71;101122.50;5049973;28;20028;-68
2024/02/05 03:19:17;;;;;;;41.35;5.20;;;;;;;5.80;61.35;101118.81;5062240;28;20973;-68
2024/02/05 03:21:42;;;;;;;24.10;5.13;;;;;;;5.84;60.83;101126.53;5020709;28;20134;-69
2024/02/05 03:24:07;;;;;;;34.03;5.90;;;;;;;5.70;61.10;101132.81;5027118;28;20032;-69
2024/02/05 03:26:33;;;;;;;33.55;5.10;;;;;;;5.63;61.10;101132.88;5020267;28;20112;-71
2024/02/05 03:28:59;;;;;;;32.72;6.72;;;;;;;5.74;60.99;101134.47;5025284;28;20354;-71
2024/02/05 03:31:25;;;;;;;31.55;5.53;;;;;;;5.91;60.87;101142.84;5001858;28;20028;-70
2024/02/05 03:33:50;;;;;;;27.88;4.97;;;;;;;5.40;62.08;101153.13;4999952;28;21052;-70
2024/02/05 03:36:16;;;;;;;33.08;5.60;;;;;;;5.79;60.77;101117.97;4990446;28;20036;-70
2024/02/05 03:38:41;;;;;;;25.65;4.70;;;;;;;5.62;60.97;101141.56;4995425;28;20820;-69
2024/02/05 03:41:08;;;;;;;31.98;5.03;;;;;;;5.63;60.88;101137.22;4990071;28;20148;-70
2024/02/05 03:43:34;;;;;;;27.55;5.82;;;;;;;5.80;60.01;101142.16;5014214;28;20358;-71
2024/02/05 03:45:59;;;;;;;39.72;5.43;;;;;;;5.52;60.80;101124.41;5055700;28;20028;-70
2024/02/05 03:48:25;;;;;;;37.70;6.10;;;;;;;5.62;61.08;101133.78;5046693;28;20039;-70
2024/02/05 03:50:51;;;;;;;35.20;5.78;;;;;;;5.24;61.92;101150.75;5054844;28;20040;-69
2024/02/05 03:53:17;;;;;;;27.63;5.25;;;;;;;5.60;60.58;101134.69;5048946;28;20166;-69
2024/02/05 03:55:42;;;;;;;31.13;4.80;;;;;;;5.59;60.96;101141.63;5049507;28;20074;-71
2024/02/05 03:58:09;;;;;;;35.45;4.72;;;;;;;5.34;60.89;101129.88;5038301;28;20040;-69
2024/02/05 04:00:35;;;;;;;36.17;4.57;;;;;;;5.59;60.72;101131.25;5043929;28;20105;-69
2024/02/05 04:03:00;;;;;;;36.83;7.78;;;;;;;5.38;61.07;101134.13;5054668;28;20032;-69
2024/02/05 04:05:31;;;;;;;30.70;5.97;;;;;;;5.44;61.12;101131.47;5044884;28;20565;-69
2024/02/05 04:07:57;;;;;;;30.60;5.18;;;;;;;5.78;60.25;101134.41;5021522;28;20054;-68
2024/02/05 04:10:23;;;;;;;36.03;5.85;;;;;;;5.38;60.95;101123.78;5027473;28;20043;-69
2024/02/05 04:12:48;;;;;;;37.30;4.50;;;;;;;5.25;61.52;101147.25;5061942;28;20048;-69
2024/02/05 04:15:14;;;;;;;49.25;7.28;;;;;;;5.42;61.32;101160.00;5058329;28;20028;-70
2024/02/05 04:17:39;;;;;;;39.53;6.85;;;;;;;5.14;61.70;101138.75;5049334;28;20495;-69
2024/02/05 04:20:05;;;;;;;42.38;5.55;;;;;;;5.16;62.02;101147.38;5032542;28;20395;-69
2024/02/05 04:22:31;;;;;;;38.22;7.63;;;;;;;5.45;61.07;101148.72;5034490;28;20063;-64
2024/02/05 04:24:56;;;;;;;41.05;5.85;;;;;;;5.25;61.55;101155.03;5060696;28;20603;-69
2024/02/05 04:27:21;;;;;;;33.83;4.57;;;;;;;5.19;61.56;101152.53;5053839;28;20024;-71
2024/02/05 04:29:47;;;;;;;42.90;5.68;;;;;;;5.71;60.14;101150.09;5050637;28;20044;-70
2024/02/05 04:32:12;;;;;;;33.42;4.88;;;;;;;5.00;61.70;101157.09;5056017;28;20406;-70
2024/02/05 04:34:38;;;;;;;34.75;6.65;;;;;;;5.55;60.55;101147.72;5049502;28;20255;-70
2024/02/05 04:37:04;;;;;;;39.85;5.13;;;;;;;5.65;60.21;101151.88;5053071;28;20032;-70
2024/02/05 04:39:30;;;;;;;25.70;5.15;;;;;;;4.96;61.84;101144.19;5051399;28;20083;-69
2024/02/05 04:41:56;;;;;;;22.15;4.60;;;;;;;5.56;60.17;101141.66;5059835;28;20130;-70
2024/02/05 04:44:22;;;;;;;34.30;4.90;;;;;;;5.36;61.02;101174.78;5049440;28;20040;-65
2024/02/05 04:46:47;;;;;;;24.88;4.70;;;;;;;5.20;60.71;101146.47;5048785;28;20056;-67
2024/02/05 04:49:13;;;;;;;30.25;4.50;;;;;;;5.55;60.28;101163.28;5060222;28;20048;-68
2024/02/05 04:51:38;;;;;;;30.65;4.90;;;;;;;5.40;60.76;101153.13;5043438;28;20708;-67
2024/02/05 04:54:05;;;;;;;39.92;5.00;;;;;;;4.83;61.74;101158.97;5059071;28;20048;-67
2024/02/05 04:56:30;;;;;;;27.30;4.40;;;;;;;5.21;60.52;101158.56;5043330;28;20035;-66
2024/02/05 04:58:56;;;;;;;39.70;5.50;;;;;;;5.60;59.77;101145.91;5055519;28;20044;-67
2024/02/05 05:01:22;;;;;;;26.02;5.00;;;;;;;5.38;60.28;101147.09;5047628;28;20047;-65
2024/02/05 05:03:47;;;;;;;31.75;4.82;;;;;;;5.20;60.76;101135.25;5046469;28;20048;-67
2024/02/05 05:06:13;;;;;;;33.38;6.20;;;;;;;5.35;60.81;101148.00;5056471;28;20043;-67
2024/02/05 05:08:39;;;;;;;29.88;4.40;;;;;;;5.13;60.86;101129.28;5008831;28;20070;-66
2024/02/05 05:11:05;;;;;;;21.80;4.20;;;;;;;5.10;61.11;101147.47;5003748;28;20510;-67
2024/02/05 05:13:30;;;;;;;28.85;4.65;;;;;;;4.77;62.33;101131.44;5000160;28;20047;-66
2024/02/05 05:15:56;;;;;;;40.63;5.45;;;;;;;5.21;60.77;101131.78;4999365;28;20036;-67
2024/02/05 05:18:23;;;;;;;34.15;4.97;;;;;;;4.96;61.75;101134.69;5001096;28;20048;-66
2024/02/05 05:20:49;;;;;;;37.10;6.07;;;;;;;4.85;61.60;101136.50;5033482;28;20907;-67
2024/02/05 05:23:17;;;;;;;27.02;5.10;;;;;;;4.98;61.16;101117.38;5048171;28;20405;-67
2024/02/05 05:25:43;;;;;;;40.50;5.32;;;;;;;4.64;61.97;101135.88;5060190;28;21167;-69
2024/02/05 05:28:09;;;;;;;31.05;4.93;;;;;;;5.00;61.63;101118.22;5052742;28;20089;-69
2024/02/05 05:30:34;;;;;;;31.67;4.43;;;;;;;5.28;60.83;101117.88;5038292;28;20122;-66
2024/02/05 05:33:00;;;;;;;33.80;6.50;;;;;;;5.09;61.30;101126.75;5052473;28;20052;-69
2024/02/05 05:35:26;;;;;;;36.70;6.78;;;;;;;5.12;61.15;101127.56;5048536;28;20066;-68
2024/02/05 05:37:51;;;;;;;28.90;5.97;;;;;;;4.90;61.89;101131.31;5048389;28;20036;-68
2024/02/05 05:40:17;;;;;;;30.42;4.65;;;;;;;4.87;61.39;101108.84;5057988;28;20024;-68
2024/02/05 05:42:42;;;;;;;30.40;3.92;;;;;;;4.68;61.90;101134.13;5040719;28;20040;-68
2024/02/05 05:45:08;;;;;;;34.75;6.07;;;;;;;4.73;62.06;101126.31;5027756;28;20059;-69
2024/02/05 05:47:34;;;;;;;33.35;5.53;;;;;;;5.05;61.68;101121.59;5029691;28;20032;-67
2024/02/05 05:49:59;;;;;;;22.20;4.05;;;;;;;5.22;60.58;101120.53;5056997;28;20028;-68
2024/02/05 05:52:27;;;;;;;33.50;4.43;;;;;;;5.17;60.57;101125.78;5052406;28;20032;-68
2024/02/05 05:54:56;;;;;;;31.13;6.85;;;;;;;4.87;61.29;101124.41;5046484;28;20040;-69
2024/02/05 05:57:21;;;;;;;24.35;4.53;;;;;;;4.96;61.65;101133.81;5030842;28;21703;-66
2024/02/05 05:59:47;;;;;;;35.97;6.70;;;;;;;5.14;60.82;101117.19;5024731;28;20058;-66
2024/02/05 06:02:13;;;;;;;33.33;4.35;;;;;;;4.72;62.10;101111.63;5054711;28;20039;-68
2024/02/05 06:04:39;;;;;;;29.77;5.28;;;;;;;5.12;60.87;101124.97;5040048;28;20072;-67
2024/02/05 06:07:06;;;;;;;32.00;5.05;;;;;;;4.75;61.45;101128.00;5039782;28;20028;-70
2024/02/05 06:09:41;;;;;;;36.20;4.10;;;;;;;4.87;61.70;101105.41;5048611;28;20036;-67
2024/02/05 06:12:07;;;;;;;32.78;4.65;;;;;;;4.88;61.36;101125.28;5051615;28;20162;-67
2024/02/05 06:14:32;;;;;;;37.85;5.45;;;;;;;4.80;61.44;101115.84;5028858;28;20048;-68
2024/02/05 06:16:58;;;;;;;24.90;3.75;;;;;;;4.64;61.42;101119.50;5054185;28;20023;-67
2024/02/05 06:19:24;;;;;;;41.10;5.07;;;;;;;4.57;62.25;101104.91;5050716;28;20047;-66
2024/02/05 06:21:50;;;;;;;42.10;5.97;;;;;;;4.70;61.27;101121.16;5044327;28;20046;-68
2024/02/05 06:24:16;;;;;;;24.38;4.03;;;;;;;5.09;60.73;101113.81;5027653;28;20145;-67
2024/02/05 06:26:41;;;;;;;34.63;5.53;;;;;;;5.02;60.67;101107.84;5020346;28;20174;-68
2024/02/05 06:29:07;;;;;;;38.67;5.60;;;;;;;4.91;61.10;101113.16;5055516;28;20040;-69
2024/02/05 06:31:33;;;;;;;30.17;3.72;;;;;;;5.18;60.22;101116.28;5045813;28;20044;-68
2024/02/05 06:33:59;;;;;;;23.58;4.22;;;;;;;4.92;61.13;101122.66;5049184;28;20044;-69
2024/02/05 06:36:25;;;;;;;20.52;5.53;;;;;;;4.89;60.34;101116.66;5054169;28;20031;-68
2024/02/05 06:38:51;;;;;;;33.83;5.63;;;;;;;4.43;62.12;101113.69;5042602;28;20418;-67
2024/02/05 06:41:16;;;;;;;21.63;5.32;;;;;;;4.56;61.41;101129.06;5052374;28;20085;-68
2024/02/05 06:43:42;;;;;;;28.83;4.22;;;;;;;4.92;60.67;101124.38;5040816;28;20036;-67
2024/02/05 06:46:08;;;;;;;24.27;4.25;;;;;;;4.33;62.43;101116.38;5036029;28;20059;-69
2024/02/05 06:48:36;;;;;;;29.33;4.78;;;;;;;4.90;60.75;101142.53;5047628;28;20036;-69
2024/02/05 06:51:02;;;;;;;28.60;4.40;;;;;;;4.93;60.55;101134.72;5049510;28;20028;-66
2024/02/05 06:53:27;;;;;;;30.08;4.22;;;;;;;4.87;60.80;101129.56;5050566;28;20109;-64
2024/02/05 06:55:53;;;;;;;28.67;3.88;;;;;;;5.17;59.73;101122.34;5042624;28;20042;-69
2024/02/05 06:58:19;;;;;;;28.23;3.97;;;;;;;4.88;60.44;101135.63;5031804;28;20718;-70
2024/02/05 07:00:46;;;;;;;32.55;5.88;;;;;;;4.94;60.83;101122.63;5045123;28;20044;-71
2024/02/05 07:03:11;;;;;;;29.20;3.88;;;;;;;4.80;61.12;101149.50;5052905;28;20028;-70
2024/02/05 07:05:37;;;;;;;25.35;3.72;;;;;;;4.81;60.83;101146.06;5044609;28;20438;-70
2024/02/05 07:08:03;;;;;;;26.35;3.97;;;;;;;4.93;60.41;101134.72;5055111;28;20664;-70
2024/02/05 07:10:28;;;;;;;26.38;4.30;;;;;;;4.73;60.78;101134.94;5074233;28;20032;-68
2024/02/05 07:12:54;;;;;;;24.35;4.93;;;;;;;4.78;60.87;101156.44;5011509;28;20046;-71
2024/02/05 07:15:20;;;;;;;30.38;4.50;;;;;;;4.83;60.97;101159.84;4999716;28;20535;-70
2024/02/05 07:17:47;;;;;;;16.98;4.75;;;;;;;4.59;61.60;101149.78;4995469;28;20539;-70
2024/02/05 07:20:12;;;;;;;29.38;5.43;;;;;;;5.05;60.30;101159.63;5000287;28;20032;-70
2024/02/05 07:22:38;;;;;;;18.73;3.25;;;;;;;5.30;59.82;101159.31;4998410;28;20031;-71
2024/02/05 07:25:05;;;;;;;25.77;4.25;;;;;;;5.29;59.65;101160.19;5023061;28;20035;-71
2024/02/05 07:27:33;;;;;;;24.95;3.95;;;;;;;4.67;61.25;101173.81;5048748;28;20043;-71
2024/02/05 07:30:03;;;;;;;30.48;4.53;;;;;;;4.99;60.61;101176.09;5045110;28;20722;-70
2024/02/05 07:32:28;;;;;;;27.67;4.43;;;;;;;4.82;61.17;101184.03;5071670;28;20085;-70
2024/02/05 07:34:54;;;;;;;18.85;4.55;;;;;;;4.29;62.72;101179.38;5043575;28;20040;-69
2024/02/05 07:37:19;;;;;;;23.40;4.70;;;;;;;4.86;61.31;101181.41;5055815;28;20067;-71
2024/02/05 07:39:45;;;;;;;26.92;4.28;;;;;;;4.82;61.27;101189.22;5025361;28;20276;-70
2024/02/05 07:42:10;;;;;;;20.70;3.38;;;;;;;5.01;60.63;101199.38;5036875;28;20102;-71
2024/02/05 07:44:36;;;;;;;24.98;3.63;;;;;;;5.14;60.29;101200.94;5048265;28;20870;-70
2024/02/05 07:47:01;;;;;;;32.58;5.22;;;;;;;5.00;60.66;101198.53;5065526;28;20388;-69
2024/02/05 07:49:27;;;;;;;21.98;4.30;;;;;;;5.47;59.16;101188.44;5042682;28;20165;-69
2024/02/05 07:51:54;;;;;;;19.80;3.17;;;;;;;4.82;61.11;101178.84;5004790;28;20116;-71
2024/02/05 07:54:19;;;;;;;20.45;3.33;;;;;;;5.40;59.46;101189.41;5053165;28;20044;-70
2024/02/05 07:56:45;;;;;;;24.98;4.30;;;;;;;4.93;60.72;101185.69;5029689;28;20036;-69
2024/02/05 07:59:12;;;;;;;20.42;3.38;;;;;;;4.79;60.86;101173.72;5054448;28;20036;-69
2024/02/05 08:01:38;;;;;;;22.60;3.70;;;;;;;5.00;60.59;101193.34;5049666;28;20028;-67
2024/02/05 08:04:04;;;;;;;30.02;4.15;;;;;;;4.78;60.94;101189.25;5027672;28;20122;-68
2024/02/05 08:06:30;;;;;;;28.13;5.05;;;;;;;5.17;59.94;101180.22;5044066;28;20028;-68
2024/02/05 08:08:56;;;;;;;27.15;4.50;;;;;;;4.77;61.03;101196.19;5044401;28;20113;-67
2024/02/05 08:11:23;;;;;;;17.63;4.10;;;;;;;5.39;59.60;101190.28;5056856;28;20123;-63
2024/02/05 08:13:50;;;;;;;20.45;4.28;;;;;;;4.88;60.84;101192.63;5041737;28;20040;-67
2024/02/05 08:16:16;;;;;;;24.65;3.28;;;;;;;5.30;60.12;101205.94;5056540;28;20044;-65
2024/02/05 08:18:41;;;;;;;31.52;5.63;;;;;;;4.96;60.61;101194.25;5049239;28;20533;-68
2024/02/05 08:21:07;;;;;;;23.02;3.47;;;;;;;5.30;59.46;101200.78;5050558;28;20117;-67
2024/02/05 08:23:33;;;;;;;33.85;4.25;;;;;;;5.28;59.72;101205.09;5052003;28;20065;-63
2024/02/05 08:26:02;;;;;;;29.58;3.72;;;;;;;5.07;60.07;101191.53;5025525;28;20562;-69
2024/02/05 08:28:28;;;;;;;27.27;4.28;;;;;;;5.24;59.57;101202.56;5056022;28;20044;-67
2024/02/05 08:30:56;;;;;;;24.23;3.97;;;;;;;5.32;59.71;101209.38;5044424;28;20036;-69
2024/02/05 08:33:22;;;;;;;23.08;4.03;;;;;;;5.33;59.24;101208.53;5054293;28;20086;-67
2024/02/05 08:35:48;;;;;;;28.98;3.88;;;;;;;5.00;60.45;101219.25;5044557;28;20028;-67
2024/02/05 08:38:13;;;;;;;22.55;4.45;;;;;;;5.05;59.71;101206.25;5055130;28;20052;-66
2024/02/05 08:40:38;;;;;;;19.00;4.70;;;;;;;5.17;59.58;101221.66;5052427;28;20046;-72
2024/02/05 08:43:05;;;;;;;26.77;6.20;;;;;;;4.98;60.22;101214.97;5030651;28;20064;-72
2024/02/05 08:45:30;;;;;;;26.80;4.63;;;;;;;5.23;59.51;101221.59;5058147;28;20068;-71
2024/02/05 08:47:56;;;;;;;21.25;4.10;;;;;;;5.49;58.77;101216.97;5047175;28;20146;-71
2024/02/05 08:50:29;;;;;;;30.13;5.97;;;;;;;4.95;60.26;101215.03;5058524;28;20505;-72
2024/02/05 08:52:54;;;;;;;20.63;3.15;;;;;;;5.11;59.32;101221.72;5015969;28;20721;-72
2024/02/05 08:55:20;;;;;;;19.45;3.58;;;;;;;5.16;59.61;101219.94;4989509;28;20035;-68
2024/02/05 08:57:49;;;;;;;39.53;5.75;;;;;;;5.10;59.06;101214.84;5002318;28;20442;-67
2024/02/05 09:00:15;;;;;;;22.10;3.72;;;;;;;5.25;59.21;101214.63;4994618;28;20064;-64
2024/02/05 09:02:41;;;;;;;23.30;4.55;;;;;;;5.73;58.09;101211.44;5013592;28;20484;-67
2024/02/05 09:05:06;;;;;;;25.70;3.63;;;;;;;5.36;58.73;101227.47;5028101;28;20393;-72
2024/02/05 09:07:32;;;;;;;14.80;3.67;;;;;;;4.97;59.58;101208.09;5052251;28;20099;-71
2024/02/05 09:09:58;;;;;;;24.25;4.38;;;;;;;5.21;59.16;101207.81;5047290;28;20041;-70
2024/02/05 09:12:23;;;;;;;25.13;3.05;;;;;;;5.56;58.21;101198.69;5057504;28;20129;-69
2024/02/05 09:14:50;;;;;;;23.50;3.85;;;;;;;5.61;58.05;101199.50;5044738;28;20085;-69
2024/02/05 09:17:16;;;;;;;23.50;5.57;;;;;;;5.26;58.92;101225.88;5055278;28;20043;-70
2024/02/05 09:19:42;;;;;;;17.88;3.22;;;;;;;5.07;59.16;101211.41;5050496;28;20047;-69
2024/02/05 09:22:08;;;;;;;27.33;4.05;;;;;;;5.52;57.77;101220.34;5048561;28;20036;-68
2024/02/05 09:24:34;;;;;;;20.20;3.17;;;;;;;5.45;58.27;101221.31;5054529;28;20121;-69
2024/02/05 09:27:00;;;;;;;29.88;3.95;;;;;;;5.31;58.66;101220.66;5043564;28;20036;-67
2024/02/05 09:29:25;;;;;;;21.88;4.15;;;;;;;5.47;58.47;101227.34;5056775;28;20047;-70
2024/02/05 09:31:52;;;;;;;23.98;3.58;;;;;;;5.80;57.45;101227.75;5045752;28;20040;-67
2024/02/05 09:34:20;;;;;;;29.55;3.90;;;;;;;5.78;57.55;101234.72;5052557;28;20043;-67
2024/02/05 09:36:46;;;;;;;18.17;4.78;;;;;;;6.32;55.92;101221.78;5065430;28;20406;-65
2024/02/05 09:39:12;;;;;;;20.92;3.17;;;;;;;5.87;56.55;101239.75;5050612;28;20052;-67
2024/02/05 09:41:39;;;;;;;20.15;4.47;;;;;;;5.48;57.29;101226.47;5055523;28;20101;-65
2024/02/05 09:44:05;;;;;;;14.13;3.92;;;;;;;5.25;58.39;101240.56;5039898;28;20032;-66
2024/02/05 09:46:33;;;;;;;26.10;3.67;;;;;;;5.80;56.95;101231.22;5057542;28;20032;-65
2024/02/05 09:49:02;;;;;;;28.90;3.70;;;;;;;5.73;57.40;101249.47;5046749;28;20804;-66
2024/02/05 09:51:29;;;;;;;25.17;4.05;;;;;;;6.26;56.07;101227.03;5056648;28;20024;-65
2024/02/05 09:54:10;;;;;;;17.80;2.90;;;;;;;5.60;57.64;101226.28;5043658;28;20036;-69
2024/02/05 09:56:36;;;;;;;19.63;3.13;;;;;;;5.54;57.80;101228.13;5055041;28;20056;-65
2024/02/05 09:59:02;;;;;;;19.70;4.07;;;;;;;5.48;57.98;101226.47;5045036;28;20058;-65
2024/02/05 10:01:30;;;;;;;30.05;4.40;;;;;;;5.37;58.16;101251.66;5057166;28;20127;-64
2024/02/05 10:03:58;;;;;;;10.80;2.10;;;;;;;5.21;58.61;101233.72;5038956;28;20043;-63
2024/02/05 10:06:30;;;;;;;16.17;2.63;;;;;;;5.43;58.05;101239.47;5058439;28;20388;-65
2024/02/05 10:08:59;;;;;;;28.98;3.88;;;;;;;5.51;57.85;101239.38;5041786;28;20043;-65
2024/02/05 10:11:27;;;;;;;18.67;3.42;;;;;;;5.63;57.72;101234.03;5052501;28;20056;-64
2024/02/05 10:13:53;;;;;;;26.17;3.72;;;;;;;5.81;56.95;101239.84;5041898;28;20100;-64
2024/02/05 10:16:19;;;;;;;25.10;3.80;;;;;;;5.78;56.76;101234.72;5051775;28;20035;-66
2024/02/05 10:18:44;;;;;;;19.20;3.90;;;;;;;5.97;56.35;101236.16;5048770;28;20043;-64
2024/02/05 10:21:10;;;;;;;20.10;3.30;;;;;;;5.01;58.71;101225.28;5047067;28;20036;-66
2024/02/05 10:23:36;;;;;;;16.73;2.50;;;;;;;5.41;58.15;101230.00;5053150;28;20044;-65
2024/02/05 10:26:03;;;;;;;12.13;3.47;;;;;;;5.36;57.88;101245.63;5037899;28;20102;-67
2024/02/05 10:28:29;;;;;;;15.32;2.95;;;;;;;5.38;58.49;101245.59;5052054;28;20044;-68
2024/02/05 10:31:07;;;;;;;14.02;3.17;;;;;;;5.29;58.19;101241.38;5043543;28;20718;-63
2024/02/05 10:33:33;;;;;;;18.63;3.58;;;;;;;6.36;55.33;101244.22;5034466;28;20118;-65
2024/02/05 10:35:59;;;;;;;10.52;3.22;;;;;;;6.39;54.78;101236.38;5038308;28;20053;-64
2024/02/05 10:38:26;;;;;;;19.88;3.42;;;;;;;5.72;56.54;101247.75;5050148;28;20032;-65
2024/02/05 10:40:55;;;;;;;12.48;3.28;;;;;;;5.71;56.93;101246.06;5062143;28;20142;-65
2024/02/05 10:43:21;;;;;;;24.33;3.90;;;;;;;5.50;57.56;101231.63;5031594;28;20505;-64
2024/02/05 10:45:46;;;;;;;15.57;3.22;;;;;;;5.98;56.12;101245.66;5049719;28;20032;-64
2024/02/05 10:48:12;;;;;;;7.63;3.15;;;;;;;5.77;56.86;101244.22;5045225;28;20051;-64
2024/02/05 10:50:37;;;;;;;14.95;2.60;;;;;;;5.83;56.48;101232.91;5035787;28;20063;-65
2024/02/05 10:53:03;;;;;;;8.88;2.33;;;;;;;5.53;57.20;101255.78;5024153;28;20086;-64
2024/02/05 10:55:28;;;;;;;21.58;4.93;;;;;;;5.89;56.42;101248.38;5052368;28;20123;-66
2024/02/05 10:58:00;;;;;;;15.52;2.78;;;;;;;5.83;56.77;101236.34;5040832;28;20040;-65
2024/02/05 11:00:26;;;;;;;16.02;2.88;;;;;;;5.85;56.44;101244.09;5049798;28;20043;-65
2024/02/05 11:03:04;;;;;;;14.93;2.42;;;;;;;5.86;56.30;101243.25;5044347;28;20051;-66
2024/02/05 11:05:31;;;;;;;40.40;2.90;;;;;;;5.71;56.69;101233.09;5052867;28;20024;-68
2024/02/05 11:08:10;;;;;;;13.38;3.42;;;;;;;5.55;57.06;101238.47;5042848;28;20043;-66
2024/02/05 11:10:43;;;;;;;20.55;3.70;;;;;;;5.56;57.08;101240.19;5052396;28;20044;-66
2024/02/05 11:13:13;;;;;;;12.70;2.95;;;;;;;4.79;58.24;101250.56;5043725;28;20108;-66
2024/02/05 11:15:40;;;;;;;15.13;2.53;;;;;;;5.56;56.87;101240.19;5054215;28;20040;-67
2024/02/05 11:18:41;;;;;;;13.63;2.38;;;;;;;5.81;56.63;101239.84;5042331;28;20152;-64
2024/02/05 11:21:08;;;;;;;9.50;1.40;;;;;;;5.70;56.97;101224.41;5032339;28;22164;-65